sensor_id;sensor_type;location;lat;lon;timestamp;temperature;humidity
18721;DHT22;9489;50.948;3.114;2023-01-29T00:02:01;3.40;37.50
18721;DHT22;9489;50.948;3.114;2023-01-29T00:04:28;3.40;19.10
18721;DHT22;9489;50.948;3.114;2023-01-29T00:06:54;3.40;17.50
18721;DHT22;9489;50.948;3.114;2023-01-29T00:09:20;3.40;15.10
18721;DHT22;9489;50.948;3.114;2023-01-29T00:11:45;3.40;13.90
18721;DHT22;9489;50.948;3.114;2023-01-29T00:14:12;3.50;14.70
18721;DHT22;9489;50.948;3.114;2023-01-29T00:16:38;3.40;4.10
18721;DHT22;9489;50.948;3.114;2023-01-29T00:19:04;3.40;5.70
18721;DHT22;9489;50.948;3.114;2023-01-29T00:21:30;3.60;1.00
18721;DHT22;9489;50.948;3.114;2023-01-29T00:23:57;3.60;1.00
18721;DHT22;9489;50.948;3.114;2023-01-29T00:26:23;3.50;1.00
18721;DHT22;9489;50.948;3.114;2023-01-29T00:28:49;3.40;1.00
18721;DHT22;9489;50.948;3.114;2023-01-29T00:31:18;3.40;1.00
18721;DHT22;9489;50.948;3.114;2023-01-29T00:33:44;3.40;1.00
18721;DHT22;9489;50.948;3.114;2023-01-29T00:36:13;3.30;3.60
18721;DHT22;9489;50.948;3.114;2023-01-29T00:38:39;3.30;5.30
18721;DHT22;9489;50.948;3.114;2023-01-29T00:41:09;3.30;5.40
18721;DHT22;9489;50.948;3.114;2023-01-29T00:43:54;3.30;1.70
18721;DHT22;9489;50.948;3.114;2023-01-29T00:46:38;3.30;1.80
18721;DHT22;9489;50.948;3.114;2023-01-29T00:49:05;3.30;1.70
18721;DHT22;9489;50.948;3.114;2023-01-29T00:51:31;3.30;1.00
18721;DHT22;9489;50.948;3.114;2023-01-29T00:53:56;3.30;1.00
18721;DHT22;9489;50.948;3.114;2023-01-29T00:56:29;3.30;1.00
18721;DHT22;9489;50.948;3.114;2023-01-29T00:58:55;3.30;1.00
18721;DHT22;9489;50.948;3.114;2023-01-29T01:01:21;3.30;1.00
18721;DHT22;9489;50.948;3.114;2023-01-29T01:04:08;3.20;1.00
18721;DHT22;9489;50.948;3.114;2023-01-29T01:06:39;3.20;1.00
18721;DHT22;9489;50.948;3.114;2023-01-29T01:09:06;3.20;1.00
18721;DHT22;9489;50.948;3.114;2023-01-29T01:11:50;3.30;3.10
18721;DHT22;9489;50.948;3.114;2023-01-29T01:14:18;3.30;1.00
18721;DHT22;9489;50.948;3.114;2023-01-29T01:16:45;3.30;1.00
18721;DHT22;9489;50.948;3.114;2023-01-29T01:19:11;3.30;1.00
18721;DHT22;9489;50.948;3.114;2023-01-29T01:21:37;3.30;1.00
18721;DHT22;9489;50.948;3.114;2023-01-29T01:24:03;3.40;1.00
18721;DHT22;9489;50.948;3.114;2023-01-29T01:26:33;3.40;1.00
18721;DHT22;9489;50.948;3.114;2023-01-29T01:28:59;3.30;1.00
18721;DHT22;9489;50.948;3.114;2023-01-29T01:31:24;3.40;1.00
18721;DHT22;9489;50.948;3.114;2023-01-29T01:33:50;3.40;1.10
18721;DHT22;9489;50.948;3.114;2023-01-29T01:36:18;3.30;1.00
18721;DHT22;9489;50.948;3.114;2023-01-29T01:38:44;3.40;1.00
18721;DHT22;9489;50.948;3.114;2023-01-29T01:41:15;3.30;2.50
18721;DHT22;9489;50.948;3.114;2023-01-29T01:46:16;3.30;7.50
18721;DHT22;9489;50.948;3.114;2023-01-29T01:48:42;3.30;10.20
18721;DHT22;9489;50.948;3.114;2023-01-29T01:51:09;3.30;12.20
18721;DHT22;9489;50.948;3.114;2023-01-29T01:53:49;3.30;11.70
18721;DHT22;9489;50.948;3.114;2023-01-29T01:56:19;3.30;7.00
18721;DHT22;9489;50.948;3.114;2023-01-29T01:58:53;3.30;10.30
18721;DHT22;9489;50.948;3.114;2023-01-29T02:01:21;3.30;10.80
18721;DHT22;9489;50.948;3.114;2023-01-29T02:04:01;3.30;12.50
18721;DHT22;9489;50.948;3.114;2023-01-29T02:06:46;3.30;10.80
18721;DHT22;9489;50.948;3.114;2023-01-29T02:09:51;3.40;11.40
18721;DHT22;9489;50.948;3.114;2023-01-29T02:12:18;3.40;3.00
18721;DHT22;9489;50.948;3.114;2023-01-29T02:14:44;3.30;5.00
18721;DHT22;9489;50.948;3.114;2023-01-29T02:17:14;3.40;10.50
18721;DHT22;9489;50.948;3.114;2023-01-29T02:19:41;3.40;6.40
18721;DHT22;9489;50.948;3.114;2023-01-29T02:22:23;3.40;4.60
18721;DHT22;9489;50.948;3.114;2023-01-29T02:25:02;3.40;1.00
18721;DHT22;9489;50.948;3.114;2023-01-29T02:30:48;3.50;1.00
18721;DHT22;9489;50.948;3.114;2023-01-29T02:44:30;3.40;2.10
18721;DHT22;9489;50.948;3.114;2023-01-29T02:47:10;3.50;6.80
18721;DHT22;9489;50.948;3.114;2023-01-29T02:49:57;3.60;6.80
18721;DHT22;9489;50.948;3.114;2023-01-29T02:52:35;3.60;7.50
18721;DHT22;9489;50.948;3.114;2023-01-29T02:55:23;3.60;10.00
18721;DHT22;9489;50.948;3.114;2023-01-29T02:57:54;3.50;6.90
18721;DHT22;9489;50.948;3.114;2023-01-29T03:00:26;3.60;7.80
18721;DHT22;9489;50.948;3.114;2023-01-29T03:08:11;3.60;4.50
18721;DHT22;9489;50.948;3.114;2023-01-29T03:10:43;3.60;3.10
18721;DHT22;9489;50.948;3.114;2023-01-29T03:13:28;3.60;1.60
18721;DHT22;9489;50.948;3.114;2023-01-29T03:16:02;3.60;1.00
18721;DHT22;9489;50.948;3.114;2023-01-29T03:18:36;3.50;1.00
18721;DHT22;9489;50.948;3.114;2023-01-29T03:21:17;3.50;10.40
18721;DHT22;9489;50.948;3.114;2023-01-29T03:24:03;3.60;1.00
18721;DHT22;9489;50.948;3.114;2023-01-29T03:26:49;3.60;3.90
18721;DHT22;9489;50.948;3.114;2023-01-29T03:29:34;3.50;5.50
18721;DHT22;9489;50.948;3.114;2023-01-29T03:32:22;3.50;5.90
18721;DHT22;9489;50.948;3.114;2023-01-29T03:34:56;3.50;5.50
18721;DHT22;9489;50.948;3.114;2023-01-29T03:39:53;3.50;7.50
18721;DHT22;9489;50.948;3.114;2023-01-29T03:45:28;3.60;1.20
18721;DHT22;9489;50.948;3.114;2023-01-29T03:48:07;3.60;1.00
18721;DHT22;9489;50.948;3.114;2023-01-29T03:53:47;3.50;1.00
18721;DHT22;9489;50.948;3.114;2023-01-29T03:59:06;3.50;1.00
18721;DHT22;9489;50.948;3.114;2023-01-29T04:01:50;3.50;1.00
18721;DHT22;9489;50.948;3.114;2023-01-29T04:04:31;3.50;1.00
18721;DHT22;9489;50.948;3.114;2023-01-29T04:07:24;3.50;1.00
18721;DHT22;9489;50.948;3.114;2023-01-29T04:09:53;3.50;1.00
18721;DHT22;9489;50.948;3.114;2023-01-29T04:12:37;3.50;1.00
18721;DHT22;9489;50.948;3.114;2023-01-29T04:15:08;3.50;1.30
18721;DHT22;9489;50.948;3.114;2023-01-29T04:17:38;3.50;2.20
18721;DHT22;9489;50.948;3.114;2023-01-29T04:20:05;3.50;1.00
18721;DHT22;9489;50.948;3.114;2023-01-29T04:22:35;3.50;3.90
18721;DHT22;9489;50.948;3.114;2023-01-29T04:25:05;3.60;5.50
18721;DHT22;9489;50.948;3.114;2023-01-29T04:30:47;3.60;3.30
18721;DHT22;9489;50.948;3.114;2023-01-29T04:33:43;3.60;6.80
18721;DHT22;9489;50.948;3.114;2023-01-29T04:36:16;3.60;6.70
18721;DHT22;9489;50.948;3.114;2023-01-29T04:41:33;3.50;13.70
18721;DHT22;9489;50.948;3.114;2023-01-29T04:44:20;3.50;18.00
18721;DHT22;9489;50.948;3.114;2023-01-29T04:47:44;3.50;17.00
18721;DHT22;9489;50.948;3.114;2023-01-29T04:58:32;3.50;28.10
18721;DHT22;9489;50.948;3.114;2023-01-29T05:01:04;3.50;31.10
18721;DHT22;9489;50.948;3.114;2023-01-29T05:03:31;3.50;28.70
18721;DHT22;9489;50.948;3.114;2023-01-29T05:05:59;3.50;35.20
18721;DHT22;9489;50.948;3.114;2023-01-29T05:08:28;3.40;36.30
18721;DHT22;9489;50.948;3.114;2023-01-29T05:10:56;3.50;34.40
18721;DHT22;9489;50.948;3.114;2023-01-29T05:13:24;3.40;39.40
18721;DHT22;9489;50.948;3.114;2023-01-29T05:16:00;3.40;41.90
18721;DHT22;9489;50.948;3.114;2023-01-29T05:18:28;3.50;42.20
18721;DHT22;9489;50.948;3.114;2023-01-29T05:20:55;3.40;43.00
18721;DHT22;9489;50.948;3.114;2023-01-29T05:23:22;3.50;42.60
18721;DHT22;9489;50.948;3.114;2023-01-29T05:25:48;3.40;42.60
18721;DHT22;9489;50.948;3.114;2023-01-29T05:28:15;3.50;41.30
18721;DHT22;9489;50.948;3.114;2023-01-29T05:30:46;3.50;42.20
18721;DHT22;9489;50.948;3.114;2023-01-29T05:33:18;3.50;44.80
18721;DHT22;9489;50.948;3.114;2023-01-29T05:35:44;3.50;41.50
18721;DHT22;9489;50.948;3.114;2023-01-29T05:38:10;3.50;40.80
18721;DHT22;9489;50.948;3.114;2023-01-29T05:40:36;3.50;40.90
18721;DHT22;9489;50.948;3.114;2023-01-29T05:43:02;3.60;38.40
18721;DHT22;9489;50.948;3.114;2023-01-29T05:45:28;3.60;40.70
18721;DHT22;9489;50.948;3.114;2023-01-29T05:47:55;3.60;41.20
18721;DHT22;9489;50.948;3.114;2023-01-29T05:50:22;3.70;36.60
18721;DHT22;9489;50.948;3.114;2023-01-29T05:52:48;3.70;37.70
18721;DHT22;9489;50.948;3.114;2023-01-29T05:55:14;3.60;37.30
18721;DHT22;9489;50.948;3.114;2023-01-29T05:57:40;3.60;35.30
18721;DHT22;9489;50.948;3.114;2023-01-29T06:00:08;3.60;33.30
18721;DHT22;9489;50.948;3.114;2023-01-29T06:02:33;3.60;35.70
18721;DHT22;9489;50.948;3.114;2023-01-29T06:04:59;3.60;37.90
18721;DHT22;9489;50.948;3.114;2023-01-29T06:07:25;3.60;39.50
18721;DHT22;9489;50.948;3.114;2023-01-29T06:09:50;3.60;39.70
18721;DHT22;9489;50.948;3.114;2023-01-29T06:12:16;3.60;45.80
18721;DHT22;9489;50.948;3.114;2023-01-29T06:14:41;3.50;45.90
18721;DHT22;9489;50.948;3.114;2023-01-29T06:17:07;3.50;43.40
18721;DHT22;9489;50.948;3.114;2023-01-29T06:19:33;3.50;46.30
18721;DHT22;9489;50.948;3.114;2023-01-29T06:21:58;3.50;46.10
18721;DHT22;9489;50.948;3.114;2023-01-29T06:24:24;3.60;45.10
18721;DHT22;9489;50.948;3.114;2023-01-29T06:26:50;3.50;47.70
18721;DHT22;9489;50.948;3.114;2023-01-29T06:29:15;3.50;51.10
18721;DHT22;9489;50.948;3.114;2023-01-29T06:31:41;3.50;51.90
18721;DHT22;9489;50.948;3.114;2023-01-29T06:34:07;3.50;50.10
18721;DHT22;9489;50.948;3.114;2023-01-29T06:36:33;3.50;51.30
18721;DHT22;9489;50.948;3.114;2023-01-29T06:38:58;3.50;51.60
18721;DHT22;9489;50.948;3.114;2023-01-29T06:41:24;3.50;49.80
18721;DHT22;9489;50.948;3.114;2023-01-29T06:43:50;3.50;50.20
18721;DHT22;9489;50.948;3.114;2023-01-29T06:46:16;3.50;51.00
18721;DHT22;9489;50.948;3.114;2023-01-29T06:48:42;3.50;47.50
18721;DHT22;9489;50.948;3.114;2023-01-29T06:51:09;3.50;46.90
18721;DHT22;9489;50.948;3.114;2023-01-29T06:53:36;3.50;43.30
18721;DHT22;9489;50.948;3.114;2023-01-29T06:56:03;3.50;45.60
18721;DHT22;9489;50.948;3.114;2023-01-29T06:58:29;3.60;42.50
18721;DHT22;9489;50.948;3.114;2023-01-29T07:01:02;3.50;44.10
18721;DHT22;9489;50.948;3.114;2023-01-29T07:03:28;3.60;36.40
18721;DHT22;9489;50.948;3.114;2023-01-29T07:05:54;3.50;32.60
18721;DHT22;9489;50.948;3.114;2023-01-29T07:08:19;3.50;34.90
18721;DHT22;9489;50.948;3.114;2023-01-29T07:10:47;3.60;37.20
18721;DHT22;9489;50.948;3.114;2023-01-29T07:13:13;3.50;37.60
18721;DHT22;9489;50.948;3.114;2023-01-29T07:15:38;3.60;34.70
18721;DHT22;9489;50.948;3.114;2023-01-29T07:18:04;3.50;36.70
18721;DHT22;9489;50.948;3.114;2023-01-29T07:20:40;3.60;35.10
18721;DHT22;9489;50.948;3.114;2023-01-29T07:23:07;3.60;33.60
18721;DHT22;9489;50.948;3.114;2023-01-29T07:25:33;3.60;31.90
18721;DHT22;9489;50.948;3.114;2023-01-29T07:28:00;3.60;31.30
18721;DHT22;9489;50.948;3.114;2023-01-29T07:30:26;3.70;32.60
18721;DHT22;9489;50.948;3.114;2023-01-29T07:32:52;3.60;25.20
18721;DHT22;9489;50.948;3.114;2023-01-29T07:35:17;3.60;26.80
18721;DHT22;9489;50.948;3.114;2023-01-29T07:37:43;3.60;28.20
18721;DHT22;9489;50.948;3.114;2023-01-29T07:40:15;3.60;28.40
18721;DHT22;9489;50.948;3.114;2023-01-29T07:42:40;3.70;28.40
18721;DHT22;9489;50.948;3.114;2023-01-29T07:45:10;3.70;28.20
18721;DHT22;9489;50.948;3.114;2023-01-29T07:47:36;3.70;26.30
18721;DHT22;9489;50.948;3.114;2023-01-29T07:50:03;3.70;27.60
18721;DHT22;9489;50.948;3.114;2023-01-29T07:52:30;3.70;27.80
18721;DHT22;9489;50.948;3.114;2023-01-29T07:54:55;3.70;31.00
18721;DHT22;9489;50.948;3.114;2023-01-29T07:57:21;3.70;26.10
18721;DHT22;9489;50.948;3.114;2023-01-29T07:59:47;3.70;23.60
18721;DHT22;9489;50.948;3.114;2023-01-29T08:02:13;3.70;23.40
18721;DHT22;9489;50.948;3.114;2023-01-29T08:04:38;3.70;26.40
18721;DHT22;9489;50.948;3.114;2023-01-29T08:07:04;3.70;28.10
18721;DHT22;9489;50.948;3.114;2023-01-29T08:09:30;3.70;28.20
18721;DHT22;9489;50.948;3.114;2023-01-29T08:11:57;3.70;28.00
18721;DHT22;9489;50.948;3.114;2023-01-29T08:14:22;3.70;28.80
18721;DHT22;9489;50.948;3.114;2023-01-29T08:16:49;3.70;27.50
18721;DHT22;9489;50.948;3.114;2023-01-29T08:19:14;3.80;27.80
18721;DHT22;9489;50.948;3.114;2023-01-29T08:21:40;3.80;25.60
18721;DHT22;9489;50.948;3.114;2023-01-29T08:24:06;3.80;17.90
18721;DHT22;9489;50.948;3.114;2023-01-29T08:26:31;3.80;17.20
18721;DHT22;9489;50.948;3.114;2023-01-29T08:28:57;3.80;16.10
18721;DHT22;9489;50.948;3.114;2023-01-29T08:31:23;3.80;18.70
18721;DHT22;9489;50.948;3.114;2023-01-29T08:33:49;3.80;17.70
18721;DHT22;9489;50.948;3.114;2023-01-29T08:36:15;3.80;15.70
18721;DHT22;9489;50.948;3.114;2023-01-29T08:38:40;3.80;15.00
18721;DHT22;9489;50.948;3.114;2023-01-29T08:41:06;3.80;17.60
18721;DHT22;9489;50.948;3.114;2023-01-29T08:43:32;3.80;14.60
18721;DHT22;9489;50.948;3.114;2023-01-29T08:45:59;3.80;16.10
18721;DHT22;9489;50.948;3.114;2023-01-29T08:48:25;3.80;18.50
18721;DHT22;9489;50.948;3.114;2023-01-29T08:50:50;3.80;15.80
18721;DHT22;9489;50.948;3.114;2023-01-29T08:53:16;3.90;15.60
18721;DHT22;9489;50.948;3.114;2023-01-29T08:55:45;3.90;10.90
18721;DHT22;9489;50.948;3.114;2023-01-29T08:58:10;3.90;8.90
18721;DHT22;9489;50.948;3.114;2023-01-29T09:00:37;3.90;4.50
18721;DHT22;9489;50.948;3.114;2023-01-29T09:03:02;4.00;1.00
18721;DHT22;9489;50.948;3.114;2023-01-29T09:05:28;4.00;1.00
18721;DHT22;9489;50.948;3.114;2023-01-29T09:07:58;4.10;1.00
18721;DHT22;9489;50.948;3.114;2023-01-29T09:10:24;4.00;1.00
18721;DHT22;9489;50.948;3.114;2023-01-29T09:12:49;4.00;1.00
18721;DHT22;9489;50.948;3.114;2023-01-29T09:15:15;4.10;1.00
18721;DHT22;9489;50.948;3.114;2023-01-29T09:17:41;4.10;1.00
18721;DHT22;9489;50.948;3.114;2023-01-29T09:20:08;4.10;1.00
18721;DHT22;9489;50.948;3.114;2023-01-29T09:22:34;4.20;1.00
18721;DHT22;9489;50.948;3.114;2023-01-29T09:25:00;4.20;1.00
18721;DHT22;9489;50.948;3.114;2023-01-29T09:27:25;4.20;1.00
18721;DHT22;9489;50.948;3.114;2023-01-29T09:29:51;4.20;1.00
18721;DHT22;9489;50.948;3.114;2023-01-29T09:32:16;4.20;1.00
18721;DHT22;9489;50.948;3.114;2023-01-29T09:34:42;4.10;1.00
18721;DHT22;9489;50.948;3.114;2023-01-29T09:37:08;4.10;1.00
18721;DHT22;9489;50.948;3.114;2023-01-29T09:39:33;4.10;1.00
18721;DHT22;9489;50.948;3.114;2023-01-29T09:45:08;4.10;1.00
18721;DHT22;9489;50.948;3.114;2023-01-29T09:47:36;4.10;1.00
18721;DHT22;9489;50.948;3.114;2023-01-29T09:50:08;4.10;1.00
18721;DHT22;9489;50.948;3.114;2023-01-29T09:52:48;4.20;1.00
18721;DHT22;9489;50.948;3.114;2023-01-29T09:55:20;4.20;1.00
18721;DHT22;9489;50.948;3.114;2023-01-29T10:00:39;4.30;1.00
18721;DHT22;9489;50.948;3.114;2023-01-29T10:03:38;4.40;1.00
18721;DHT22;9489;50.948;3.114;2023-01-29T10:11:45;4.50;1.00
18721;DHT22;9489;50.948;3.114;2023-01-29T10:19:46;4.50;1.00
18721;DHT22;9489;50.948;3.114;2023-01-29T10:25:09;4.70;1.00
18721;DHT22;9489;50.948;3.114;2023-01-29T10:27:39;4.60;1.00
18721;DHT22;9489;50.948;3.114;2023-01-29T10:30:07;4.70;1.00
18721;DHT22;9489;50.948;3.114;2023-01-29T10:32:35;4.70;1.00
18721;DHT22;9489;50.948;3.114;2023-01-29T10:35:03;4.80;1.00
18721;DHT22;9489;50.948;3.114;2023-01-29T10:37:39;4.80;1.00
18721;DHT22;9489;50.948;3.114;2023-01-29T10:40:19;4.80;1.00
18721;DHT22;9489;50.948;3.114;2023-01-29T10:42:55;4.80;1.00
18721;DHT22;9489;50.948;3.114;2023-01-29T10:51:10;4.90;1.00
18721;DHT22;9489;50.948;3.114;2023-01-29T10:56:50;4.90;1.00
18721;DHT22;9489;50.948;3.114;2023-01-29T11:01:49;5.00;1.00
18721;DHT22;9489;50.948;3.114;2023-01-29T11:04:15;5.00;1.00
18721;DHT22;9489;50.948;3.114;2023-01-29T11:06:41;5.10;1.00
18721;DHT22;9489;50.948;3.114;2023-01-29T11:09:20;5.20;1.00
18721;DHT22;9489;50.948;3.114;2023-01-29T11:17:17;5.20;1.00
18721;DHT22;9489;50.948;3.114;2023-01-29T11:19:45;5.30;1.00
18721;DHT22;9489;50.948;3.114;2023-01-29T11:22:16;5.30;1.00
18721;DHT22;9489;50.948;3.114;2023-01-29T11:24:44;5.30;1.00
18721;DHT22;9489;50.948;3.114;2023-01-29T11:27:20;5.40;1.00
18721;DHT22;9489;50.948;3.114;2023-01-29T11:29:47;5.30;1.00
18721;DHT22;9489;50.948;3.114;2023-01-29T11:32:25;5.30;1.00
18721;DHT22;9489;50.948;3.114;2023-01-29T11:35:30;5.40;1.00
18721;DHT22;9489;50.948;3.114;2023-01-29T11:37:49;5.50;1.00
18721;DHT22;9489;50.948;3.114;2023-01-29T11:42:44;5.60;1.00
18721;DHT22;9489;50.948;3.114;2023-01-29T11:45:28;5.60;1.00
18721;DHT22;9489;50.948;3.114;2023-01-29T11:47:57;5.60;1.00
18721;DHT22;9489;50.948;3.114;2023-01-29T11:50:28;5.60;1.00
18721;DHT22;9489;50.948;3.114;2023-01-29T11:52:55;5.60;1.00
18721;DHT22;9489;50.948;3.114;2023-01-29T11:55:23;5.70;1.00
18721;DHT22;9489;50.948;3.114;2023-01-29T11:58:11;5.70;1.00
18721;DHT22;9489;50.948;3.114;2023-01-29T12:00:39;5.80;1.00
18721;DHT22;9489;50.948;3.114;2023-01-29T12:05:39;5.70;1.00
18721;DHT22;9489;50.948;3.114;2023-01-29T12:08:14;5.80;1.00
18721;DHT22;9489;50.948;3.114;2023-01-29T12:10:41;5.80;1.00
18721;DHT22;9489;50.948;3.114;2023-01-29T12:15:46;5.80;1.00
18721;DHT22;9489;50.948;3.114;2023-01-29T12:18:40;5.80;1.00
18721;DHT22;9489;50.948;3.114;2023-01-29T12:21:16;5.80;1.00
18721;DHT22;9489;50.948;3.114;2023-01-29T12:26:26;5.80;1.00
18721;DHT22;9489;50.948;3.114;2023-01-29T12:34:36;5.90;1.00
18721;DHT22;9489;50.948;3.114;2023-01-29T12:37:34;5.90;1.00
18721;DHT22;9489;50.948;3.114;2023-01-29T12:40:01;6.00;1.00
18721;DHT22;9489;50.948;3.114;2023-01-29T12:42:27;6.00;1.00
18721;DHT22;9489;50.948;3.114;2023-01-29T12:44:54;6.00;1.00
18721;DHT22;9489;50.948;3.114;2023-01-29T12:50:20;6.10;1.00
18721;DHT22;9489;50.948;3.114;2023-01-29T12:58:08;6.20;1.00
18721;DHT22;9489;50.948;3.114;2023-01-29T13:00:39;6.20;1.00
18721;DHT22;9489;50.948;3.114;2023-01-29T13:06:01;6.10;1.00
18721;DHT22;9489;50.948;3.114;2023-01-29T13:08:35;6.20;1.00
18721;DHT22;9489;50.948;3.114;2023-01-29T13:11:07;6.30;1.00
18721;DHT22;9489;50.948;3.114;2023-01-29T13:13:48;6.30;1.00
18721;DHT22;9489;50.948;3.114;2023-01-29T13:16:19;6.30;1.00
18721;DHT22;9489;50.948;3.114;2023-01-29T13:18:58;6.40;1.00
18721;DHT22;9489;50.948;3.114;2023-01-29T13:21:33;6.40;1.00
18721;DHT22;9489;50.948;3.114;2023-01-29T13:24:21;6.30;1.00
18721;DHT22;9489;50.948;3.114;2023-01-29T13:26:48;6.30;1.00
18721;DHT22;9489;50.948;3.114;2023-01-29T13:29:32;6.30;1.00
18721;DHT22;9489;50.948;3.114;2023-01-29T13:32:00;6.20;1.00
18721;DHT22;9489;50.948;3.114;2023-01-29T13:34:33;6.20;1.00
18721;DHT22;9489;50.948;3.114;2023-01-29T13:37:09;6.10;1.00
18721;DHT22;9489;50.948;3.114;2023-01-29T13:39:44;6.10;1.00
18721;DHT22;9489;50.948;3.114;2023-01-29T13:42:19;6.00;1.00
18721;DHT22;9489;50.948;3.114;2023-01-29T13:44:48;6.00;1.00
18721;DHT22;9489;50.948;3.114;2023-01-29T13:47:26;6.00;1.00
18721;DHT22;9489;50.948;3.114;2023-01-29T13:50:08;6.00;1.00
18721;DHT22;9489;50.948;3.114;2023-01-29T13:52:44;6.00;1.00
18721;DHT22;9489;50.948;3.114;2023-01-29T14:10:41;6.00;1.00
18721;DHT22;9489;50.948;3.114;2023-01-29T14:18:32;6.00;1.00
18721;DHT22;9489;50.948;3.114;2023-01-29T14:23:44;6.00;1.00
18721;DHT22;9489;50.948;3.114;2023-01-29T14:26:30;6.00;1.00
18721;DHT22;9489;50.948;3.114;2023-01-29T14:29:29;6.00;1.00
18721;DHT22;9489;50.948;3.114;2023-01-29T14:35:09;6.00;1.00
18721;DHT22;9489;50.948;3.114;2023-01-29T14:37:40;6.00;1.00
18721;DHT22;9489;50.948;3.114;2023-01-29T14:43:02;6.00;1.00
18721;DHT22;9489;50.948;3.114;2023-01-29T14:45:33;5.90;1.00
18721;DHT22;9489;50.948;3.114;2023-01-29T14:48:01;5.90;1.00
18721;DHT22;9489;50.948;3.114;2023-01-29T14:52:58;5.90;1.00
18721;DHT22;9489;50.948;3.114;2023-01-29T14:55:30;5.90;1.00
18721;DHT22;9489;50.948;3.114;2023-01-29T14:57:59;5.90;1.00
18721;DHT22;9489;50.948;3.114;2023-01-29T15:00:35;5.90;1.00
18721;DHT22;9489;50.948;3.114;2023-01-29T15:03:03;5.90;1.00
18721;DHT22;9489;50.948;3.114;2023-01-29T15:05:35;6.00;1.00
18721;DHT22;9489;50.948;3.114;2023-01-29T15:08:24;6.00;1.00
18721;DHT22;9489;50.948;3.114;2023-01-29T15:10:56;6.00;1.00
18721;DHT22;9489;50.948;3.114;2023-01-29T15:13:52;6.00;1.00
18721;DHT22;9489;50.948;3.114;2023-01-29T15:19:23;6.00;1.00
18721;DHT22;9489;50.948;3.114;2023-01-29T15:24:27;5.90;3.30
18721;DHT22;9489;50.948;3.114;2023-01-29T15:26:53;5.90;6.40
18721;DHT22;9489;50.948;3.114;2023-01-29T15:29:23;5.90;12.10
18721;DHT22;9489;50.948;3.114;2023-01-29T15:31:49;5.90;16.80
18721;DHT22;9489;50.948;3.114;2023-01-29T15:34:14;5.90;22.00
18721;DHT22;9489;50.948;3.114;2023-01-29T15:36:40;5.90;25.00
18721;DHT22;9489;50.948;3.114;2023-01-29T15:39:22;6.00;24.00
18721;DHT22;9489;50.948;3.114;2023-01-29T15:41:50;6.00;28.50
18721;DHT22;9489;50.948;3.114;2023-01-29T15:44:28;6.00;40.60
18721;DHT22;9489;50.948;3.114;2023-01-29T15:46:59;6.00;45.40
18721;DHT22;9489;50.948;3.114;2023-01-29T15:49:35;5.90;48.80
18721;DHT22;9489;50.948;3.114;2023-01-29T15:52:06;6.00;49.20
18721;DHT22;9489;50.948;3.114;2023-01-29T15:54:33;5.90;54.40
18721;DHT22;9489;50.948;3.114;2023-01-29T15:57:00;5.90;54.90
18721;DHT22;9489;50.948;3.114;2023-01-29T15:59:33;5.90;62.90
18721;DHT22;9489;50.948;3.114;2023-01-29T16:04:52;5.90;60.90
18721;DHT22;9489;50.948;3.114;2023-01-29T16:07:18;5.90;64.40
18721;DHT22;9489;50.948;3.114;2023-01-29T16:09:45;5.90;75.20
18721;DHT22;9489;50.948;3.114;2023-01-29T16:12:12;5.90;84.80
18721;DHT22;9489;50.948;3.114;2023-01-29T16:14:38;5.90;90.20
18721;DHT22;9489;50.948;3.114;2023-01-29T16:17:25;5.90;91.90
18721;DHT22;9489;50.948;3.114;2023-01-29T16:19:58;5.90;95.40
18721;DHT22;9489;50.948;3.114;2023-01-29T16:22:35;5.90;97.80
18721;DHT22;9489;50.948;3.114;2023-01-29T16:25:11;5.80;99.90
18721;DHT22;9489;50.948;3.114;2023-01-29T16:27:37;5.80;99.90
18721;DHT22;9489;50.948;3.114;2023-01-29T16:30:04;5.80;99.90
18721;DHT22;9489;50.948;3.114;2023-01-29T16:32:30;5.80;99.90
18721;DHT22;9489;50.948;3.114;2023-01-29T16:34:57;5.80;99.90
18721;DHT22;9489;50.948;3.114;2023-01-29T16:37:27;5.80;99.90
18721;DHT22;9489;50.948;3.114;2023-01-29T16:39:55;5.80;99.90
18721;DHT22;9489;50.948;3.114;2023-01-29T16:42:29;5.70;99.90
18721;DHT22;9489;50.948;3.114;2023-01-29T16:45:03;5.70;99.90
18721;DHT22;9489;50.948;3.114;2023-01-29T16:53:10;5.70;99.90
18721;DHT22;9489;50.948;3.114;2023-01-29T16:55:38;5.70;99.90
18721;DHT22;9489;50.948;3.114;2023-01-29T16:58:25;5.70;99.90
18721;DHT22;9489;50.948;3.114;2023-01-29T17:00:59;5.70;99.90
18721;DHT22;9489;50.948;3.114;2023-01-29T17:03:27;5.70;99.90
18721;DHT22;9489;50.948;3.114;2023-01-29T17:05:54;5.80;99.90
18721;DHT22;9489;50.948;3.114;2023-01-29T17:08:32;5.80;99.90
18721;DHT22;9489;50.948;3.114;2023-01-29T17:10:59;5.80;99.90
18721;DHT22;9489;50.948;3.114;2023-01-29T17:13:37;5.80;99.90
18721;DHT22;9489;50.948;3.114;2023-01-29T17:16:25;5.80;99.90
18721;DHT22;9489;50.948;3.114;2023-01-29T17:18:51;5.80;99.90
18721;DHT22;9489;50.948;3.114;2023-01-29T17:21:17;5.90;99.90
18721;DHT22;9489;50.948;3.114;2023-01-29T17:23:42;5.90;99.90
18721;DHT22;9489;50.948;3.114;2023-01-29T17:26:11;5.90;99.90
18721;DHT22;9489;50.948;3.114;2023-01-29T17:28:37;5.90;99.90
18721;DHT22;9489;50.948;3.114;2023-01-29T17:31:03;5.90;99.90
18721;DHT22;9489;50.948;3.114;2023-01-29T17:33:29;5.90;99.90
18721;DHT22;9489;50.948;3.114;2023-01-29T17:35:55;5.90;99.90
18721;DHT22;9489;50.948;3.114;2023-01-29T17:38:21;5.90;99.90
18721;DHT22;9489;50.948;3.114;2023-01-29T17:40:57;6.00;99.90
18721;DHT22;9489;50.948;3.114;2023-01-29T17:43:24;5.90;99.90
18721;DHT22;9489;50.948;3.114;2023-01-29T17:45:49;5.90;99.90
18721;DHT22;9489;50.948;3.114;2023-01-29T17:48:24;5.90;99.90
18721;DHT22;9489;50.948;3.114;2023-01-29T17:50:52;5.90;99.90
18721;DHT22;9489;50.948;3.114;2023-01-29T17:53:21;5.90;99.90
18721;DHT22;9489;50.948;3.114;2023-01-29T17:55:47;5.90;99.90
18721;DHT22;9489;50.948;3.114;2023-01-29T17:58:22;5.80;99.90
18721;DHT22;9489;50.948;3.114;2023-01-29T18:00:48;5.80;99.90
18721;DHT22;9489;50.948;3.114;2023-01-29T18:03:14;5.80;99.90
18721;DHT22;9489;50.948;3.114;2023-01-29T18:05:40;5.80;99.90
18721;DHT22;9489;50.948;3.114;2023-01-29T18:08:16;5.80;99.90
18721;DHT22;9489;50.948;3.114;2023-01-29T18:10:42;5.80;99.90
18721;DHT22;9489;50.948;3.114;2023-01-29T18:13:08;5.80;99.90
18721;DHT22;9489;50.948;3.114;2023-01-29T18:15:33;5.80;99.90
18721;DHT22;9489;50.948;3.114;2023-01-29T18:17:59;5.80;99.90
18721;DHT22;9489;50.948;3.114;2023-01-29T18:20:25;5.80;99.90
18721;DHT22;9489;50.948;3.114;2023-01-29T18:22:51;5.80;99.90
18721;DHT22;9489;50.948;3.114;2023-01-29T18:25:17;5.80;99.90
18721;DHT22;9489;50.948;3.114;2023-01-29T18:27:43;5.80;99.90
18721;DHT22;9489;50.948;3.114;2023-01-29T18:30:10;5.80;99.90
18721;DHT22;9489;50.948;3.114;2023-01-29T18:32:36;5.80;99.90
18721;DHT22;9489;50.948;3.114;2023-01-29T18:35:01;5.90;99.90
18721;DHT22;9489;50.948;3.114;2023-01-29T18:37:27;5.90;99.90
18721;DHT22;9489;50.948;3.114;2023-01-29T18:39:54;5.90;99.90
18721;DHT22;9489;50.948;3.114;2023-01-29T18:42:19;5.90;99.90
18721;DHT22;9489;50.948;3.114;2023-01-29T18:44:45;5.90;99.90
18721;DHT22;9489;50.948;3.114;2023-01-29T18:47:11;5.90;99.90
18721;DHT22;9489;50.948;3.114;2023-01-29T18:49:36;5.90;99.90
18721;DHT22;9489;50.948;3.114;2023-01-29T18:52:04;6.00;99.90
18721;DHT22;9489;50.948;3.114;2023-01-29T18:54:30;5.90;99.90
18721;DHT22;9489;50.948;3.114;2023-01-29T18:56:56;6.00;99.90
18721;DHT22;9489;50.948;3.114;2023-01-29T18:59:21;6.00;99.90
18721;DHT22;9489;50.948;3.114;2023-01-29T19:01:47;6.00;99.90
18721;DHT22;9489;50.948;3.114;2023-01-29T19:04:13;6.00;99.90
18721;DHT22;9489;50.948;3.114;2023-01-29T19:06:38;5.90;99.90
18721;DHT22;9489;50.948;3.114;2023-01-29T19:09:04;6.00;99.90